This is the latest recevied weather packets stored in our database for station/object KD8ZLZ-13. If no packets are shown the sender has not sent any weather packets the latest 10 day(s).
| Time | Temp. | Humidity | Pressure | Rain* | Wind** | Luminosity | Snow |
|---|---|---|---|---|---|---|---|
| 1778187644 | 15° C | 35% | 1012.6 hPa | 0 mm | - | 647 W/m² | - |
| 1778187044 | 13.33° C | 38% | 1012.9 hPa | 0 mm | - | 383 W/m² | - |
| 1778186444 | 12.78° C | 37% | 1012.9 hPa | 0 mm | - | 241 W/m² | - |
| 1778185844 | 13.33° C | 38% | 1012.9 hPa | 0 mm | - | 292 W/m² | - |
| 1778185244 | 13.33° C | 38% | 1012.9 hPa | 0 mm | - | 456 W/m² | - |
| 1778184644 | 12.78° C | 37% | 1012.9 hPa | 0 mm | - | 394 W/m² | - |
| 1778184044 | 13.89° C | 37% | 1012.9 hPa | 0 mm | - | 802 W/m² | - |
| 1778183444 | 12.78° C | 38% | 1012.9 hPa | 0 mm | - | 318 W/m² | - |
| 1778182844 | 12.78° C | 38% | 1012.9 hPa | 0 mm | - | 194 W/m² | - |
| 1778182244 | 13.89° C | 37% | 1013.2 hPa | 0 mm | - | 618 W/m² | - |
| 1778181644 | 13.33° C | 38% | 1012.9 hPa | 0 mm | - | 736 W/m² | - |
| 1778181044 | 12.22° C | 38% | 1013.2 hPa | 0 mm | - | 277 W/m² | - |
| 1778180444 | 13.89° C | 37% | 1013.2 hPa | 0 mm | - | 746 W/m² | - |
| 1778179844 | 13.89° C | 36% | 1013.2 hPa | 0 mm | - | 103 W/m² | - |
| 1778179244 | 12.78° C | 38% | 1013.2 hPa | 0 mm | - | 853 W/m² | - |
| 1778178644 | 12.78° C | 36% | 1013.2 hPa | 0 mm | - | 365 W/m² | - |
| 1778178044 | 13.89° C | 36% | 1013.6 hPa | 0 mm | - | 102 W/m² | - |
| 1778177444 | 13.33° C | 36% | 1013.6 hPa | 0 mm | - | 103 W/m² | - |
| 1778176844 | 13.33° C | 37% | 1013.6 hPa | 0 mm | - | 107 W/m² | - |
| 1778176244 | 13.33° C | 39% | 1013.6 hPa | 0 mm | - | 812 W/m² | - |
| 1778175644 | 13.33° C | 40% | 1013.6 hPa | 0 mm | - | 920 W/m² | - |
| 1778175044 | 13.33° C | 40% | 1013.9 hPa | 0 mm | - | 845 W/m² | - |
| 1778174444 | 12.22° C | 42% | 1013.9 hPa | 0 mm | - | 103 W/m² | - |
| 1778173844 | 12.22° C | 41% | 1013.9 hPa | 0 mm | - | 574 W/m² | - |
| 1778173244 | 12.22° C | 41% | 1013.9 hPa | 0 mm | - | 443 W/m² | - |
* Rain latest hour (hover to see other rain measurements)
** Current wind speed in m/s (hover to see current wind gust speed)